Time;durP1;ratioP1;P1;durP2;ratioP2;P2;SDS_P1;SDS_P2;PMS_P1;PMS_P2;Temp;Humidity;BMP_temperature;BMP_pressure;BME280_temperature;BME280_humidity;BME280_pressure;Samples;Min_cycle;Max_cycle;Signal;HPM_P1;HPM_P2
2022/03/03 00:02:07;;;;;;;6.00;4.75;;;8.50;99.90;;;;;;5052947;28;20067;-83
2022/03/03 00:04:33;;;;;;;6.50;4.80;;;8.50;99.90;;;;;;5050531;28;20025;-84
2022/03/03 00:06:59;;;;;;;6.85;5.03;;;8.50;99.90;;;;;;5049011;28;20025;-83
2022/03/03 00:09:24;;;;;;;8.93;5.32;;;8.50;99.90;;;;;;5046972;28;20028;-83
2022/03/03 00:11:50;;;;;;;6.50;4.88;;;8.40;99.90;;;;;;5050756;28;20514;-83
2022/03/03 00:14:16;;;;;;;6.97;4.75;;;8.50;99.90;;;;;;5049351;28;20032;-83
2022/03/03 00:16:41;;;;;;;6.35;5.22;;;8.50;99.90;;;;;;5052295;28;20029;-83
2022/03/03 00:19:07;;;;;;;7.43;5.93;;;8.50;99.90;;;;;;5050942;28;20064;-83
2022/03/03 00:21:34;;;;;;;9.50;7.07;;;8.50;99.90;;;;;;5050850;28;20094;-83
2022/03/03 00:23:59;;;;;;;10.95;6.07;;;8.50;99.90;;;;;;5039098;28;20029;-83
2022/03/03 00:26:25;;;;;;;11.43;7.35;;;8.50;99.90;;;;;;5050762;28;20104;-83
2022/03/03 00:28:51;;;;;;;12.75;6.75;;;8.50;99.90;;;;;;5052215;28;20095;-83
2022/03/03 00:31:17;;;;;;;9.68;7.15;;;8.40;99.90;;;;;;5047634;28;20426;-83
2022/03/03 00:33:42;;;;;;;9.32;6.93;;;8.40;99.90;;;;;;5050861;28;20021;-83
2022/03/03 00:36:08;;;;;;;11.32;7.40;;;8.50;99.90;;;;;;5050234;28;20029;-83
2022/03/03 00:38:34;;;;;;;10.95;6.55;;;8.50;99.90;;;;;;5035784;28;20414;-83
2022/03/03 00:40:59;;;;;;;17.33;7.72;;;8.50;99.90;;;;;;5052528;28;20600;-83
2022/03/03 00:43:25;;;;;;;11.65;7.43;;;8.50;99.90;;;;;;5045804;28;20629;-83
2022/03/03 00:45:51;;;;;;;11.15;6.97;;;8.50;99.90;;;;;;5043076;28;20021;-83
2022/03/03 00:48:17;;;;;;;10.15;6.38;;;8.50;99.90;;;;;;5046662;28;20455;-83
2022/03/03 00:50:42;;;;;;;10.77;6.20;;;8.50;99.90;;;;;;5043625;28;20537;-83
2022/03/03 00:53:08;;;;;;;9.88;5.82;;;8.60;99.90;;;;;;5050910;28;20070;-83
2022/03/03 00:55:34;;;;;;;9.73;6.43;;;8.60;99.90;;;;;;5050773;28;20474;-83
2022/03/03 00:58:00;;;;;;;10.32;5.70;;;8.60;99.90;;;;;;5050219;28;20021;-83
2022/03/03 01:00:26;;;;;;;8.77;5.65;;;8.50;99.90;;;;;;5050249;28;20448;-83
2022/03/03 01:02:52;;;;;;;6.75;4.95;;;8.40;99.90;;;;;;5050186;28;20470;-83
2022/03/03 01:05:17;;;;;;;7.80;5.40;;;8.40;99.90;;;;;;5050115;28;20031;-83
2022/03/03 01:07:44;;;;;;;6.75;4.80;;;8.40;99.90;;;;;;5051050;28;20026;-83
2022/03/03 01:10:10;;;;;;;8.32;5.15;;;8.40;99.90;;;;;;5049814;28;20033;-83
2022/03/03 01:12:36;;;;;;;7.00;4.88;;;8.50;99.90;;;;;;5048792;28;20058;-83
2022/03/03 01:15:05;;;;;;;7.07;5.30;;;8.50;99.90;;;;;;5049167;28;20021;-83
2022/03/03 01:17:30;;;;;;;8.38;6.22;;;8.50;99.90;;;;;;5050034;28;20029;-83
2022/03/03 01:19:56;;;;;;;9.45;5.47;;;8.60;99.90;;;;;;5051381;28;20097;-83
2022/03/03 01:22:22;;;;;;;9.80;6.03;;;8.60;99.90;;;;;;5044764;28;20403;-83
2022/03/03 01:24:47;;;;;;;9.02;6.22;;;8.60;99.90;;;;;;5042849;28;20520;-83
2022/03/03 01:27:13;;;;;;;10.00;5.60;;;8.50;99.90;;;;;;5049263;28;20024;-83
2022/03/03 01:29:39;;;;;;;7.03;4.90;;;8.60;99.90;;;;;;5049701;28;20534;-83
2022/03/03 01:32:06;;;;;;;10.25;6.28;;;8.60;99.90;;;;;;5051479;28;20025;-83
2022/03/03 01:34:32;;;;;;;8.65;5.70;;;8.50;99.90;;;;;;5048947;28;20036;-83
2022/03/03 01:36:58;;;;;;;10.38;5.90;;;8.50;99.90;;;;;;5049023;28;20025;-83
2022/03/03 01:39:24;;;;;;;9.88;6.07;;;8.40;99.90;;;;;;5049221;28;20033;-83
2022/03/03 01:41:51;;;;;;;14.48;7.07;;;8.40;99.90;;;;;;5049471;28;20025;-83
2022/03/03 01:44:17;;;;;;;12.57;7.53;;;8.40;99.90;;;;;;5049468;28;20083;-83
2022/03/03 01:46:54;;;;;;;14.75;7.90;;;8.40;99.90;;;;;;5050625;28;20021;-83
2022/03/03 01:49:20;;;;;;;12.35;7.28;;;8.40;99.90;;;;;;5049186;28;20045;-83
2022/03/03 01:51:46;;;;;;;10.07;6.57;;;8.40;99.90;;;;;;5043149;28;20021;-83
2022/03/03 01:54:12;;;;;;;10.32;6.25;;;8.40;99.90;;;;;;5049065;28;20025;-83
2022/03/03 01:56:40;;;;;;;10.25;6.60;;;8.40;99.90;;;;;;5048017;28;20033;-83
2022/03/03 01:59:05;;;;;;;9.88;6.32;;;8.40;99.90;;;;;;5051270;28;20029;-83
2022/03/03 02:01:32;;;;;;;8.05;5.80;;;8.40;99.90;;;;;;5047803;28;20571;-83
2022/03/03 02:03:58;;;;;;;8.60;5.80;;;8.30;99.90;;;;;;5047342;28;20051;-83
2022/03/03 02:06:25;;;;;;;9.68;5.65;;;8.30;99.90;;;;;;5044797;28;20502;-83
2022/03/03 02:08:54;;;;;;;10.48;6.15;;;8.30;99.90;;;;;;5049190;28;20039;-83
2022/03/03 02:11:20;;;;;;;7.50;5.32;;;8.30;99.90;;;;;;5041729;28;20017;-83
2022/03/03 02:13:47;;;;;;;7.95;5.43;;;8.30;99.90;;;;;;5050069;28;20482;-83
2022/03/03 02:16:12;;;;;;;7.18;5.05;;;8.40;99.90;;;;;;5048286;28;20037;-82
2022/03/03 02:18:43;;;;;;;7.10;4.82;;;8.40;99.90;;;;;;5048950;28;20505;-82
2022/03/03 02:21:12;;;;;;;6.97;4.82;;;8.30;99.90;;;;;;5048670;28;20032;-83
2022/03/03 02:23:38;;;;;;;7.60;5.00;;;8.30;99.90;;;;;;5039478;28;20017;-83
2022/03/03 02:26:06;;;;;;;8.50;5.35;;;8.30;99.90;;;;;;5050174;28;20039;-83
2022/03/03 02:28:32;;;;;;;7.82;5.20;;;8.30;99.90;;;;;;5045504;28;20021;-83
2022/03/03 02:30:58;;;;;;;8.18;5.25;;;8.30;99.90;;;;;;5047213;28;20598;-83
2022/03/03 02:33:24;;;;;;;6.97;4.78;;;8.30;99.90;;;;;;5048242;28;20028;-83
2022/03/03 02:35:49;;;;;;;6.20;4.32;;;8.30;99.90;;;;;;5048439;28;20029;-83
2022/03/03 02:38:15;;;;;;;6.93;5.07;;;8.20;99.90;;;;;;5035777;28;20025;-83
2022/03/03 02:40:41;;;;;;;5.30;4.10;;;8.30;99.90;;;;;;5049644;28;20074;-83
2022/03/03 02:43:07;;;;;;;5.32;4.00;;;8.20;99.90;;;;;;5046034;28;20071;-83
2022/03/03 02:45:32;;;;;;;5.65;4.00;;;8.10;99.90;;;;;;5043921;28;20095;-82
2022/03/03 02:47:58;;;;;;;5.72;3.90;;;8.00;99.90;;;;;;5048695;28;20028;-83
2022/03/03 02:50:28;;;;;;;4.25;3.60;;;7.90;99.90;;;;;;5042361;28;20057;-83
2022/03/03 02:52:53;;;;;;;4.70;3.50;;;7.90;99.90;;;;;;5050517;28;20128;-83
2022/03/03 02:55:20;;;;;;;5.28;3.60;;;8.00;99.90;;;;;;5048486;28;20155;-83
2022/03/03 02:57:55;;;;;;;5.20;3.40;;;7.90;99.90;;;;;;5048626;28;20043;-83
2022/03/03 03:00:28;;;;;;;4.95;3.28;;;7.80;99.90;;;;;;5035622;28;20163;-83
2022/03/03 03:02:54;;;;;;;4.15;2.92;;;7.70;99.90;;;;;;5046586;28;20024;-83
2022/03/03 03:05:20;;;;;;;5.60;3.40;;;7.80;99.90;;;;;;5046222;28;20032;-82
2022/03/03 03:07:47;;;;;;;4.20;3.05;;;7.70;99.90;;;;;;5049676;28;20083;-83
2022/03/03 03:10:12;;;;;;;3.95;2.70;;;7.60;99.90;;;;;;5047909;28;20036;-83
2022/03/03 03:12:38;;;;;;;27.30;3.45;;;7.40;99.90;;;;;;5048183;28;20017;-83
2022/03/03 03:15:05;;;;;;;2.65;2.45;;;7.20;99.90;;;;;;5048437;28;20021;-83
2022/03/03 03:17:31;;;;;;;4.88;2.88;;;7.20;99.90;;;;;;5046894;28;20025;-83
2022/03/03 03:19:56;;;;;;;6.05;2.42;;;7.10;99.90;;;;;;5050282;28;20071;-83
2022/03/03 03:22:22;;;;;;;2.53;2.13;;;6.80;99.90;;;;;;5046572;28;20028;-82
2022/03/03 03:24:48;;;;;;;4.45;2.17;;;7.00;99.90;;;;;;5044338;28;20072;-83
2022/03/03 03:27:13;;;;;;;3.60;2.15;;;6.90;99.90;;;;;;5028518;28;20021;-83
2022/03/03 03:29:39;;;;;;;1.75;1.65;;;6.90;99.90;;;;;;5048318;28;20539;-82
2022/03/03 03:32:05;;;;;;;1.92;1.58;;;7.00;99.90;;;;;;5049683;28;20029;-82
2022/03/03 03:34:31;;;;;;;2.00;1.80;;;7.10;99.90;;;;;;5047977;28;20236;-82
2022/03/03 03:36:56;;;;;;;2.47;1.92;;;7.00;99.90;;;;;;5048512;28;20431;-82
2022/03/03 03:39:22;;;;;;;2.47;1.90;;;7.00;99.90;;;;;;5051509;28;20513;-82
2022/03/03 03:41:48;;;;;;;2.67;2.10;;;6.90;99.90;;;;;;5051680;28;20033;-82
2022/03/03 03:44:14;;;;;;;2.65;2.20;;;6.90;99.90;;;;;;5052176;28;20449;-82
2022/03/03 03:46:39;;;;;;;3.13;2.00;;;6.90;99.90;;;;;;5049812;28;20025;-82
2022/03/03 03:49:05;;;;;;;3.88;2.45;;;6.90;99.90;;;;;;5050427;28;20045;-82
2022/03/03 03:51:31;;;;;;;3.53;2.30;;;6.90;99.90;;;;;;5048009;28;20323;-82
2022/03/03 03:53:57;;;;;;;3.90;2.40;;;6.90;99.90;;;;;;5051572;28;20028;-82
2022/03/03 03:56:24;;;;;;;4.53;2.75;;;6.90;99.90;;;;;;5051410;28;20048;-82
2022/03/03 03:58:50;;;;;;;4.18;2.78;;;6.80;99.90;;;;;;5045381;28;20033;-82
2022/03/03 04:01:16;;;;;;;3.25;2.40;;;6.70;99.90;;;;;;5046921;28;20033;-82
2022/03/03 04:03:42;;;;;;;3.05;2.58;;;6.70;99.90;;;;;;5047588;28;20024;-82
2022/03/03 04:06:08;;;;;;;2.88;2.55;;;6.70;99.90;;;;;;5049608;28;20021;-82
2022/03/03 04:08:34;;;;;;;3.65;2.20;;;6.70;99.90;;;;;;5046417;28;20024;-82
2022/03/03 04:11:02;;;;;;;3.60;2.42;;;6.70;99.90;;;;;;5020121;28;20021;-82
2022/03/03 04:13:28;;;;;;;2.58;2.30;;;6.50;99.90;;;;;;5050174;28;20021;-82
2022/03/03 04:15:53;;;;;;;4.07;2.20;;;6.30;99.90;;;;;;5051005;28;20087;-82
2022/03/03 04:18:20;;;;;;;3.35;2.22;;;6.40;99.90;;;;;;5050968;28;20490;-82
2022/03/03 04:20:46;;;;;;;2.15;1.75;;;6.40;99.90;;;;;;5050262;28;20059;-82
2022/03/03 04:23:11;;;;;;;2.55;2.10;;;6.30;99.90;;;;;;5051598;28;20078;-82
2022/03/03 04:25:37;;;;;;;2.75;2.00;;;6.30;99.90;;;;;;5049128;28;20037;-82
2022/03/03 04:28:03;;;;;;;2.67;2.00;;;6.30;99.90;;;;;;5049763;28;20021;-82
2022/03/03 04:30:30;;;;;;;2.17;1.98;;;6.30;99.90;;;;;;5050422;28;20509;-82
2022/03/03 04:32:56;;;;;;;2.70;2.05;;;6.20;99.90;;;;;;5050644;28;20021;-82
2022/03/03 04:35:22;;;;;;;6.25;2.45;;;6.30;99.90;;;;;;5050062;28;20517;-82
2022/03/03 04:37:48;;;;;;;4.07;3.22;;;6.40;99.90;;;;;;5051836;28;20021;-82
2022/03/03 04:40:13;;;;;;;7.65;3.47;;;6.20;99.90;;;;;;5048689;28;20032;-82
2022/03/03 04:42:39;;;;;;;3.67;2.83;;;5.90;99.90;;;;;;5028216;28;20514;-82
2022/03/03 04:45:06;;;;;;;5.28;3.45;;;5.90;99.90;;;;;;5049235;28;20082;-82
2022/03/03 04:47:32;;;;;;;3.30;3.00;;;5.80;99.90;;;;;;5049552;28;20688;-82
2022/03/03 04:49:58;;;;;;;3.95;2.95;;;5.80;99.90;;;;;;5049119;28;20083;-82
2022/03/03 04:52:23;;;;;;;6.00;3.40;;;5.80;99.90;;;;;;5049048;28;20028;-82
2022/03/03 04:54:49;;;;;;;5.78;3.70;;;5.90;99.90;;;;;;5049679;28;20074;-82
2022/03/03 04:57:15;;;;;;;4.80;3.60;;;5.80;99.90;;;;;;5049817;28;20103;-82
2022/03/03 04:59:41;;;;;;;6.18;4.40;;;5.70;99.90;;;;;;5049973;28;20024;-82
2022/03/03 05:02:07;;;;;;;6.15;4.05;;;5.70;99.90;;;;;;5044883;28;20160;-82
2022/03/03 05:04:32;;;;;;;8.30;4.53;;;5.70;99.90;;;;;;5049814;28;20175;-82
2022/03/03 05:06:58;;;;;;;7.20;4.80;;;5.80;99.90;;;;;;5048665;28;20633;-82
2022/03/03 05:09:24;;;;;;;8.80;5.22;;;5.70;99.90;;;;;;5048989;28;20509;-82
2022/03/03 05:11:49;;;;;;;6.18;3.80;;;5.70;99.90;;;;;;5035118;28;20025;-82
2022/03/03 05:14:15;;;;;;;7.50;4.50;;;5.80;99.90;;;;;;5050290;28;20100;-83
2022/03/03 05:16:41;;;;;;;7.90;4.68;;;5.80;99.90;;;;;;5051523;28;20510;-82
2022/03/03 05:19:07;;;;;;;7.32;4.93;;;5.80;99.90;;;;;;5049424;28;20178;-82
2022/03/03 05:21:33;;;;;;;8.60;5.97;;;5.80;99.90;;;;;;5049408;28;20540;-82
2022/03/03 05:23:59;;;;;;;8.27;5.00;;;5.90;99.90;;;;;;5048640;28;20032;-82
2022/03/03 05:26:26;;;;;;;8.20;5.78;;;5.90;99.90;;;;;;5047803;28;20071;-82
2022/03/03 05:28:51;;;;;;;8.13;5.18;;;6.00;99.90;;;;;;5050926;28;20040;-82
2022/03/03 05:31:17;;;;;;;7.72;5.07;;;5.90;99.90;;;;;;5049602;28;20029;-82
2022/03/03 05:33:43;;;;;;;7.97;5.28;;;5.80;99.90;;;;;;5049479;28;20035;-82
2022/03/03 05:36:10;;;;;;;6.70;4.80;;;5.90;99.90;;;;;;5048736;28;20100;-83
2022/03/03 05:38:37;;;;;;;7.28;4.70;;;6.00;99.90;;;;;;5049339;28;20820;-82
2022/03/03 05:41:04;;;;;;;7.90;5.03;;;5.90;99.90;;;;;;5050924;28;20559;-82
2022/03/03 05:43:31;;;;;;;7.70;4.88;;;6.00;99.90;;;;;;5046652;28;20025;-82
2022/03/03 05:45:57;;;;;;;6.10;4.20;;;6.10;99.90;;;;;;5043551;28;20017;-82
2022/03/03 05:48:25;;;;;;;6.85;4.75;;;6.10;99.90;;;;;;5049006;28;20023;-82
2022/03/03 05:50:52;;;;;;;8.27;4.93;;;6.20;99.90;;;;;;5044423;28;20111;-82
2022/03/03 05:53:19;;;;;;;6.88;4.70;;;5.90;99.90;;;;;;5049379;28;20051;-82
2022/03/03 05:55:46;;;;;;;7.53;4.70;;;6.00;99.90;;;;;;5050798;28;20055;-82
2022/03/03 05:58:16;;;;;;;7.95;4.80;;;6.10;99.90;;;;;;5048216;28;20033;-82
2022/03/03 06:00:47;;;;;;;6.13;4.35;;;5.60;99.90;;;;;;5045082;28;20025;-82
2022/03/03 06:03:14;;;;;;;5.93;3.95;;;5.80;99.90;;;;;;5047585;28;20029;-82
2022/03/03 06:05:41;;;;;;;7.93;4.30;;;5.90;99.90;;;;;;5049326;28;20163;-82
2022/03/03 06:08:15;;;;;;;6.65;4.85;;;5.90;99.90;;;;;;5050293;28;20111;-82
2022/03/03 06:10:46;;;;;;;7.43;5.05;;;5.90;99.90;;;;;;5049985;28;20070;-82
2022/03/03 06:13:28;;;;;;;8.80;5.05;;;5.80;99.90;;;;;;5048941;28;20032;-82
2022/03/03 06:15:54;;;;;;;;;;;5.80;99.90;;;;;;5049249;28;20056;-82
2022/03/03 06:18:27;;;;;;;6.43;4.13;;;5.90;99.90;;;;;;5048194;28;19952;-82
2022/03/03 06:20:53;;;;;;;5.85;4.00;;;5.90;99.90;;;;;;5047538;28;20029;-82
2022/03/03 06:23:20;;;;;;;6.35;4.30;;;5.80;99.90;;;;;;5046335;28;20024;-82
2022/03/03 06:26:06;;;;;;;8.27;3.75;;;5.80;99.90;;;;;;5049213;28;20017;-82
2022/03/03 06:28:33;;;;;;;6.50;4.00;;;5.70;99.90;;;;;;5048808;28;20029;-82
2022/03/03 06:30:59;;;;;;;6.65;3.83;;;5.60;99.90;;;;;;5048442;28;20056;-82
2022/03/03 06:33:26;;;;;;;5.40;3.30;;;5.50;99.90;;;;;;5048567;28;20075;-82
2022/03/03 06:35:52;;;;;;;5.88;3.00;;;5.50;99.90;;;;;;5048346;28;20129;-82
2022/03/03 06:38:18;;;;;;;4.57;3.58;;;5.60;99.90;;;;;;5048495;28;20013;-82
2022/03/03 06:40:44;;;;;;;4.20;2.80;;;5.40;99.90;;;;;;5045721;28;20060;-82
2022/03/03 06:43:10;;;;;;;3.15;2.85;;;5.40;99.90;;;;;;5046033;28;20098;-82
2022/03/03 06:45:35;;;;;;;3.35;2.90;;;5.50;99.90;;;;;;5047902;28;20053;-82
2022/03/03 06:48:04;;;;;;;3.47;2.65;;;5.60;99.90;;;;;;5048482;28;20458;-82
2022/03/03 06:50:30;;;;;;;5.00;3.10;;;5.30;99.90;;;;;;5030176;28;20041;-82
2022/03/03 06:52:56;;;;;;;5.15;3.20;;;5.30;99.90;;;;;;5042236;28;20562;-82
2022/03/03 06:55:25;;;;;;;4.10;2.95;;;5.20;99.90;;;;;;5042305;28;20048;-82
2022/03/03 06:57:55;;;;;;;4.43;3.30;;;5.30;99.90;;;;;;5046567;28;20040;-82
2022/03/03 07:00:26;;;;;;;3.13;2.17;;;5.20;99.90;;;;;;5048428;28;20025;-82
2022/03/03 07:02:53;;;;;;;4.03;2.63;;;5.10;99.90;;;;;;5048334;28;20025;-82
2022/03/03 07:05:20;;;;;;;4.43;2.55;;;5.20;99.90;;;;;;5048436;28;20063;-82
2022/03/03 07:07:48;;;;;;;4.07;2.47;;;5.30;99.90;;;;;;5049403;28;20028;-82
2022/03/03 07:10:19;;;;;;;4.50;2.55;;;5.40;99.90;;;;;;5047893;28;20047;-82
2022/03/03 07:12:45;;;;;;;3.88;2.80;;;5.20;99.90;;;;;;5050045;28;20340;-82
2022/03/03 07:15:11;;;;;;;3.28;2.78;;;5.10;99.90;;;;;;5049823;28;20098;-82
2022/03/03 07:17:56;;;;;;;4.32;2.50;;;5.40;99.90;;;;;;5052269;28;20041;-82
2022/03/03 07:20:43;;;;;;;4.22;2.30;;;5.40;99.90;;;;;;5051735;28;20033;-82
2022/03/03 07:23:23;;;;;;;3.25;2.22;;;5.50;99.90;;;;;;5049931;28;20079;-83
2022/03/03 07:25:53;;;;;;;2.03;1.83;;;5.60;99.90;;;;;;5053453;28;20020;-83
2022/03/03 07:28:20;;;;;;;2.40;2.20;;;5.70;99.90;;;;;;5051857;28;20021;-83
2022/03/03 07:30:49;;;;;;;3.13;2.25;;;5.90;99.90;;;;;;5047577;28;20024;-83
2022/03/03 07:33:48;;;;;;;2.83;2.47;;;6.20;99.90;;;;;;5051699;28;20025;-83
2022/03/03 07:36:19;;;;;;;4.10;2.10;;;6.30;99.90;;;;;;4950689;28;20047;-82
2022/03/03 07:38:56;;;;;;;2.35;1.80;;;6.30;99.90;;;;;;4951527;28;20038;-82
2022/03/03 07:41:25;;;;;;;2.65;2.17;;;6.30;99.90;;;;;;4937659;29;20565;-82
2022/03/03 07:43:51;;;;;;;2.42;2.22;;;6.40;99.90;;;;;;4950113;28;20027;-82
2022/03/03 07:46:17;;;;;;;2.45;2.25;;;6.80;99.90;;;;;;4947740;28;20580;-83
2022/03/03 07:48:46;;;;;;;2.40;2.00;;;7.40;99.90;;;;;;4949894;28;20054;-83
2022/03/03 07:51:12;;;;;;;2.80;2.30;;;8.10;99.90;;;;;;4947418;28;20036;-83
2022/03/03 07:53:38;;;;;;;4.80;2.28;;;9.00;99.90;;;;;;4945152;29;20043;-83
2022/03/03 07:56:05;;;;;;;2.80;2.45;;;11.10;99.90;;;;;;4951682;28;20509;-83
2022/03/03 07:58:37;;;;;;;2.70;2.17;;;11.90;99.90;;;;;;4951068;28;20038;-83
2022/03/03 08:01:05;;;;;;;3.10;2.55;;;11.80;99.90;;;;;;4951066;28;20065;-83
2022/03/03 08:03:32;;;;;;;3.20;2.53;;;11.40;99.90;;;;;;4951038;28;20047;-83
2022/03/03 08:05:58;;;;;;;3.25;2.58;;;11.50;99.90;;;;;;4939650;28;20043;-83
2022/03/03 08:08:26;;;;;;;3.75;2.92;;;11.10;99.90;;;;;;4940257;29;20032;-82
2022/03/03 08:10:57;;;;;;;2.83;2.45;;;10.50;99.90;;;;;;4952811;28;20020;-83
2022/03/03 08:13:26;;;;;;;3.15;2.63;;;11.20;99.90;;;;;;5020547;28;20041;-83
2022/03/03 08:15:53;;;;;;;4.13;3.20;;;11.00;99.90;;;;;;5048431;28;20045;-83
2022/03/03 08:18:20;;;;;;;4.15;2.75;;;10.60;99.90;;;;;;5050560;28;20021;-82
2022/03/03 08:20:46;;;;;;;3.63;2.50;;;10.00;99.90;;;;;;5050426;28;20037;-83
2022/03/03 08:23:12;;;;;;;4.03;3.55;;;10.00;99.90;;;;;;5051554;28;20536;-83
2022/03/03 08:25:38;;;;;;;3.60;2.92;;;9.40;99.90;;;;;;5052047;28;20116;-82
2022/03/03 08:28:06;;;;;;;5.25;3.47;;;9.20;99.90;;;;;;5049524;28;20103;-83
2022/03/03 08:30:34;;;;;;;7.88;3.78;;;9.10;99.90;;;;;;5048988;28;20024;-83
2022/03/03 08:33:14;;;;;;;4.47;3.67;;;9.20;99.90;;;;;;5049964;28;20501;-82
2022/03/03 08:35:44;;;;;;;4.70;3.90;;;9.20;99.90;;;;;;5041703;28;20016;-83
2022/03/03 08:38:28;;;;;;;6.20;4.13;;;9.40;99.90;;;;;;5050358;28;20086;-82
2022/03/03 08:40:57;;;;;;;6.50;5.20;;;9.40;99.90;;;;;;5050814;28;20050;-83
2022/03/03 08:43:24;;;;;;;7.25;4.53;;;9.60;99.90;;;;;;5050031;28;20033;-83
2022/03/03 08:45:51;;;;;;;7.13;4.85;;;9.70;99.90;;;;;;5050349;28;20047;-83
2022/03/03 08:48:22;;;;;;;7.93;5.00;;;9.80;99.90;;;;;;5049890;28;20031;-83
2022/03/03 08:50:50;;;;;;;7.17;4.33;;;10.40;99.90;;;;;;5040708;28;20032;-83
2022/03/03 08:53:15;;;;;;;6.78;5.03;;;11.00;99.90;;;;;;5051138;28;20832;-83
2022/03/03 08:55:41;;;;;;;7.72;4.82;;;11.20;99.90;;;;;;5051440;28;20104;-83
2022/03/03 08:58:07;;;;;;;9.98;4.93;;;11.60;99.90;;;;;;5049964;28;20029;-83
2022/03/03 09:00:33;;;;;;;7.85;5.38;;;11.40;99.90;;;;;;5049933;28;20056;-82
2022/03/03 09:03:00;;;;;;;6.35;5.05;;;11.40;99.90;;;;;;5050016;28;20499;-82
2022/03/03 09:05:26;;;;;;;9.38;6.15;;;11.60;99.90;;;;;;5050192;28;20025;-83
2022/03/03 09:07:52;;;;;;;7.45;5.55;;;10.80;99.90;;;;;;5051702;28;20474;-83
2022/03/03 09:10:18;;;;;;;9.45;6.20;;;10.40;99.90;;;;;;5048598;28;20061;-82
2022/03/03 09:12:44;;;;;;;9.88;5.97;;;10.30;99.90;;;;;;5045581;28;20353;-82
2022/03/03 09:15:11;;;;;;;8.55;5.85;;;10.30;99.90;;;;;;5048339;28;20029;-83
2022/03/03 09:17:37;;;;;;;7.80;6.05;;;10.30;99.90;;;;;;5049678;28;20025;-82
2022/03/03 09:20:06;;;;;;;8.57;6.50;;;10.10;99.90;;;;;;5051787;28;20054;-83
2022/03/03 09:22:32;;;;;;;8.63;5.88;;;10.20;99.90;;;;;;5049705;28;20036;-83
2022/03/03 09:24:58;;;;;;;10.57;6.22;;;10.30;99.90;;;;;;5049477;28;20102;-83
2022/03/03 09:27:24;;;;;;;10.93;6.22;;;10.50;99.90;;;;;;5049536;28;20021;-83
2022/03/03 09:29:51;;;;;;;10.00;5.95;;;10.80;99.90;;;;;;5049661;28;20070;-83
2022/03/03 09:32:17;;;;;;;9.40;5.55;;;10.90;99.90;;;;;;5049919;28;20025;-83
2022/03/03 09:34:45;;;;;;;8.27;5.60;;;11.20;99.90;;;;;;5050441;28;20115;-83
2022/03/03 09:37:12;;;;;;;11.02;5.85;;;11.10;99.90;;;;;;5048052;28;20025;-83
2022/03/03 09:39:38;;;;;;;7.40;5.78;;;11.10;99.90;;;;;;5031106;28;20029;-83
2022/03/03 09:42:03;;;;;;;8.05;5.40;;;11.00;99.90;;;;;;5049503;28;20100;-83
2022/03/03 09:44:29;;;;;;;7.95;5.80;;;11.00;99.90;;;;;;5049028;28;20491;-83
2022/03/03 09:46:56;;;;;;;9.07;5.63;;;11.00;99.90;;;;;;5051124;28;20017;-83
2022/03/03 09:49:22;;;;;;;5.10;3.97;;;11.10;99.90;;;;;;5046966;28;20106;-83
2022/03/03 09:51:48;;;;;;;6.43;4.00;;;11.20;99.90;;;;;;5026705;28;20048;-83
2022/03/03 09:54:14;;;;;;;4.60;3.75;;;11.30;99.90;;;;;;5046736;28;20057;-83
2022/03/03 09:56:40;;;;;;;5.07;3.80;;;11.30;99.90;;;;;;5049222;28;20048;-83
2022/03/03 09:59:09;;;;;;;6.20;3.70;;;11.30;99.90;;;;;;5050980;28;20083;-83
2022/03/03 10:01:36;;;;;;;6.95;3.97;;;11.70;99.90;;;;;;5048580;28;20035;-83
2022/03/03 10:04:18;;;;;;;7.53;3.70;;;11.50;99.90;;;;;;5048931;28;20029;-83
2022/03/03 10:06:44;;;;;;;5.30;2.72;;;11.60;99.90;;;;;;5046234;28;20517;-83
2022/03/03 10:09:11;;;;;;;4.63;2.70;;;11.50;99.90;;;;;;5045316;28;20026;-83
2022/03/03 10:12:01;;;;;;;3.90;2.70;;;11.70;99.90;;;;;;5048435;28;20049;-83
2022/03/03 10:14:32;;;;;;;4.60;2.85;;;11.90;99.90;;;;;;5046244;28;20036;-83
2022/03/03 10:16:58;;;;;;;3.80;2.85;;;12.40;99.90;;;;;;5050394;28;20070;-83
2022/03/03 10:19:24;;;;;;;3.58;3.03;;;12.60;99.90;;;;;;5048546;28;20059;-83
2022/03/03 10:21:50;;;;;;;4.35;3.50;;;12.50;99.90;;;;;;5048581;28;20498;-83
2022/03/03 10:24:17;;;;;;;4.55;3.15;;;12.30;99.90;;;;;;5048582;28;20102;-84
2022/03/03 10:26:44;;;;;;;6.35;4.32;;;12.30;99.90;;;;;;5046594;28;20522;-83
2022/03/03 10:29:21;;;;;;;5.38;3.30;;;12.30;99.90;;;;;;5050798;28;20096;-83
2022/03/03 10:31:48;;;;;;;4.78;3.28;;;12.50;99.90;;;;;;5046231;28;20017;-83
2022/03/03 10:34:20;;;;;;;3.92;3.05;;;12.50;99.90;;;;;;5030570;28;20537;-83
2022/03/03 10:37:05;;;;;;;6.50;3.55;;;12.30;99.90;;;;;;5048000;28;20028;-84
2022/03/03 10:39:46;;;;;;;5.97;3.50;;;12.30;99.90;;;;;;5048660;28;20107;-83
2022/03/03 10:42:20;;;;;;;8.73;3.85;;;12.40;99.90;;;;;;5048332;28;20036;-83
2022/03/03 10:44:48;;;;;;;4.38;3.30;;;12.30;99.90;;;;;;5042261;28;20039;-83
2022/03/03 10:47:16;;;;;;;5.82;3.65;;;12.40;99.90;;;;;;5032655;28;20108;-84
2022/03/03 10:49:47;;;;;;;7.57;3.72;;;12.60;99.90;;;;;;5046843;28;20056;-84
2022/03/03 10:52:17;;;;;;;4.70;3.08;;;12.70;99.90;;;;;;5047073;28;20028;-84
2022/03/03 10:55:10;;;;;;;4.07;3.50;;;12.50;99.90;;;;;;5033982;28;20506;-84
2022/03/03 10:57:42;;;;;;;5.75;3.03;;;12.30;99.90;;;;;;5052171;28;20032;-84
2022/03/03 11:00:17;;;;;;;9.52;3.85;;;12.20;99.90;;;;;;5052215;28;20099;-84
2022/03/03 11:02:45;;;;;;;8.63;3.75;;;12.20;99.90;;;;;;5048129;28;20025;-83
2022/03/03 11:05:12;;;;;;;6.30;3.72;;;12.30;99.90;;;;;;5054350;28;20032;-84
2022/03/03 11:07:41;;;;;;;7.20;3.65;;;12.40;99.90;;;;;;5052059;28;20017;-84
2022/03/03 11:10:12;;;;;;;5.80;3.72;;;12.40;99.90;;;;;;5049537;28;20039;-84
2022/03/03 11:12:43;;;;;;;6.15;3.53;;;12.60;99.90;;;;;;5050504;28;20024;-84
2022/03/03 11:15:10;;;;;;;6.03;3.22;;;12.50;99.90;;;;;;5052142;28;20036;-84
2022/03/03 11:17:37;;;;;;;7.32;3.90;;;12.60;99.90;;;;;;5036695;28;20021;-84
2022/03/03 11:20:04;;;;;;;5.05;3.40;;;12.60;99.90;;;;;;5054081;28;20017;-84
2022/03/03 11:22:31;;;;;;;6.72;3.58;;;12.50;99.90;;;;;;5051430;28;20053;-84
2022/03/03 11:25:00;;;;;;;5.15;3.65;;;12.50;99.90;;;;;;5051587;28;20041;-84
2022/03/03 11:27:37;;;;;;;5.60;3.75;;;12.50;99.90;;;;;;5050968;28;20017;-84
2022/03/03 11:30:24;;;;;;;5.07;4.10;;;12.50;99.90;;;;;;5050811;28;20110;-84
2022/03/03 11:33:27;;;;;;;7.35;4.28;;;12.40;99.90;;;;;;5042313;28;20036;-84
2022/03/03 11:36:04;;;;;;;5.47;3.78;;;12.30;99.90;;;;;;5040258;28;20098;-84
2022/03/03 11:38:45;;;;;;;4.45;3.35;;;12.20;99.90;;;;;;5033731;28;20025;-84
2022/03/03 11:41:11;;;;;;;5.68;3.53;;;12.30;99.90;;;;;;5053902;28;20116;-84
2022/03/03 11:43:57;;;;;;;6.47;4.40;;;12.40;99.90;;;;;;5051284;28;20083;-84
2022/03/03 11:46:49;;;;;;;5.10;3.75;;;12.60;99.90;;;;;;5050228;28;20029;-84
2022/03/03 11:49:24;;;;;;;6.75;4.10;;;12.40;99.90;;;;;;5047940;28;20037;-84
2022/03/03 11:51:54;;;;;;;5.47;4.32;;;12.30;99.90;;;;;;5043381;28;20082;-84
2022/03/03 11:54:27;;;;;;;6.10;4.35;;;12.40;99.90;;;;;;5050431;28;20021;-84
2022/03/03 11:57:08;;;;;;;4.80;3.80;;;12.70;99.90;;;;;;5051447;28;20062;-84
2022/03/03 11:59:35;;;;;;;5.82;4.05;;;12.70;99.90;;;;;;5050656;28;20028;-84
2022/03/03 12:02:01;;;;;;;6.05;3.53;;;12.60;99.90;;;;;;5053063;28;20021;-84
2022/03/03 12:04:27;;;;;;;6.35;3.50;;;12.90;99.90;;;;;;5050725;28;20410;-84
2022/03/03 12:06:55;;;;;;;5.03;3.30;;;12.90;99.90;;;;;;5032292;28;20070;-84
2022/03/03 12:09:26;;;;;;;5.28;3.35;;;12.80;99.90;;;;;;5048207;28;20047;-84
2022/03/03 12:12:16;;;;;;;5.15;3.33;;;12.60;99.90;;;;;;5050818;28;20063;-84
2022/03/03 12:15:00;;;;;;;4.20;3.28;;;12.60;99.90;;;;;;5038704;28;20036;-84
2022/03/03 12:17:51;;;;;;;3.67;2.75;;;12.80;99.90;;;;;;5050794;28;20017;-85
2022/03/03 12:20:35;;;;;;;5.32;3.30;;;13.10;99.90;;;;;;5048128;28;20029;-84
2022/03/03 12:23:12;;;;;;;4.00;2.90;;;13.30;99.90;;;;;;5052977;28;20029;-84
2022/03/03 12:25:50;;;;;;;5.13;3.53;;;13.40;99.90;;;;;;5049603;28;20028;-84
2022/03/03 12:28:34;;;;;;;5.03;3.28;;;13.20;99.90;;;;;;5028224;28;20047;-84
2022/03/03 12:31:01;;;;;;;4.15;3.10;;;13.10;99.90;;;;;;5043571;28;20021;-84
2022/03/03 12:33:32;;;;;;;4.72;2.83;;;13.00;99.90;;;;;;5050070;28;20025;-85
2022/03/03 12:36:05;;;;;;;4.43;3.50;;;13.10;99.90;;;;;;5050376;28;20025;-85
2022/03/03 12:38:35;;;;;;;5.43;3.13;;;13.10;99.90;;;;;;5050518;28;20504;-84
2022/03/03 12:41:01;;;;;;;4.35;3.17;;;13.40;99.90;;;;;;5052229;28;20021;-85
2022/03/03 12:43:40;;;;;;;3.85;3.40;;;13.30;99.90;;;;;;5049769;28;20052;-85
2022/03/03 12:46:07;;;;;;;4.55;3.15;;;13.10;99.90;;;;;;5049809;28;20024;-84
2022/03/03 12:48:34;;;;;;;4.70;2.95;;;13.10;99.90;;;;;;5047496;28;20061;-85
2022/03/03 12:51:07;;;;;;;3.92;3.15;;;13.40;99.90;;;;;;5045102;28;20021;-85
2022/03/03 12:53:36;;;;;;;5.82;3.13;;;13.40;99.90;;;;;;5049628;28;20033;-84
2022/03/03 12:56:03;;;;;;;4.70;3.08;;;13.20;99.90;;;;;;5051934;28;20091;-85
2022/03/03 12:58:31;;;;;;;4.68;3.13;;;13.40;99.90;;;;;;5050189;28;20047;-85
2022/03/03 13:00:57;;;;;;;5.00;3.33;;;13.30;99.90;;;;;;5049226;28;20056;-85